sensor_id;sensor_type;location;lat;lon;timestamp;pressure;altitude;pressure_sealevel;temperature;humidity
35649;BME280;21768;48.562;13.414;2022-10-22T00:00:49;97107.34;;;13.35;73.07
35649;BME280;21768;48.562;13.414;2022-10-22T00:03:14;97097.22;;;13.35;73.15
35649;BME280;21768;48.562;13.414;2022-10-22T00:05:40;97091.28;;;13.34;73.10
35649;BME280;21768;48.562;13.414;2022-10-22T00:08:05;97093.06;;;13.37;73.12
35649;BME280;21768;48.562;13.414;2022-10-22T00:10:31;97092.28;;;13.38;73.21
35649;BME280;21768;48.562;13.414;2022-10-22T00:12:56;97098.97;;;13.36;73.35
35649;BME280;21768;48.562;13.414;2022-10-22T00:15:21;97092.28;;;13.38;73.33
35649;BME280;21768;48.562;13.414;2022-10-22T00:17:47;97085.63;;;13.40;73.22
35649;BME280;21768;48.562;13.414;2022-10-22T00:20:14;97089.75;;;13.38;73.33
35649;BME280;21768;48.562;13.414;2022-10-22T00:22:39;97084.56;;;13.35;73.24
35649;BME280;21768;48.562;13.414;2022-10-22T00:25:05;97082.59;;;13.29;73.52
35649;BME280;21768;48.562;13.414;2022-10-22T00:27:30;97080.78;;;13.26;73.97
35649;BME280;21768;48.562;13.414;2022-10-22T00:29:55;97083.47;;;13.30;73.90
35649;BME280;21768;48.562;13.414;2022-10-22T00:32:21;97084.56;;;13.35;73.75
35649;BME280;21768;48.562;13.414;2022-10-22T00:34:46;97085.34;;;13.34;73.73
35649;BME280;21768;48.562;13.414;2022-10-22T00:37:11;97073.47;;;13.33;73.76
35649;BME280;21768;48.562;13.414;2022-10-22T00:39:37;97081.16;;;13.34;73.77
35649;BME280;21768;48.562;13.414;2022-10-22T00:42:02;97073.75;;;13.39;73.88
35649;BME280;21768;48.562;13.414;2022-10-22T00:49:59;97060.00;;;13.34;73.85
35649;BME280;21768;48.562;13.414;2022-10-22T00:52:25;97060.13;;;13.37;73.79
35649;BME280;21768;48.562;13.414;2022-10-22T00:54:51;97058.53;;;13.39;73.69
35649;BME280;21768;48.562;13.414;2022-10-22T00:57:18;97064.47;;;13.39;73.96
35649;BME280;21768;48.562;13.414;2022-10-22T00:59:44;97061.22;;;13.42;73.77
35649;BME280;21768;48.562;13.414;2022-10-22T01:02:10;97064.78;;;13.45;73.84
35649;BME280;21768;48.562;13.414;2022-10-22T01:04:35;97061.47;;;13.46;73.81
35649;BME280;21768;48.562;13.414;2022-10-22T01:07:02;97056.47;;;13.48;73.99
35649;BME280;21768;48.562;13.414;2022-10-22T01:17:29;97051.88;;;13.41;73.88
35649;BME280;21768;48.562;13.414;2022-10-22T01:21:23;97043.50;;;13.42;74.08
35649;BME280;21768;48.562;13.414;2022-10-22T01:31:20;97039.75;;;13.34;73.89
35649;BME280;21768;48.562;13.414;2022-10-22T01:33:48;97047.13;;;13.29;74.11
35649;BME280;21768;48.562;13.414;2022-10-22T01:36:16;97042.69;;;13.25;74.35
35649;BME280;21768;48.562;13.414;2022-10-22T01:38:44;97050.38;;;13.26;74.44
35649;BME280;21768;48.562;13.414;2022-10-22T01:41:11;97063.19;;;13.30;74.14
35649;BME280;21768;48.562;13.414;2022-10-22T01:43:36;97065.56;;;13.26;74.12
35649;BME280;21768;48.562;13.414;2022-10-22T01:46:04;97052.03;;;13.26;74.11
35649;BME280;21768;48.562;13.414;2022-10-22T01:57:04;97024.09;;;13.24;74.41
35649;BME280;21768;48.562;13.414;2022-10-22T01:59:43;97005.63;;;13.27;74.54
35649;BME280;21768;48.562;13.414;2022-10-22T02:02:41;97009.91;;;13.28;74.62
35649;BME280;21768;48.562;13.414;2022-10-22T02:05:13;97009.09;;;13.29;74.41
35649;BME280;21768;48.562;13.414;2022-10-22T02:07:54;97012.22;;;13.23;74.52
35649;BME280;21768;48.562;13.414;2022-10-22T02:10:23;97009.59;;;13.22;74.37
35649;BME280;21768;48.562;13.414;2022-10-22T02:12:51;97006.28;;;13.23;74.29
35649;BME280;21768;48.562;13.414;2022-10-22T02:15:19;96998.69;;;13.23;74.29
35649;BME280;21768;48.562;13.414;2022-10-22T02:17:46;96999.78;;;13.28;74.39
35649;BME280;21768;48.562;13.414;2022-10-22T02:20:16;97003.97;;;13.27;74.46
35649;BME280;21768;48.562;13.414;2022-10-22T02:22:42;97014.25;;;13.31;74.32
35649;BME280;21768;48.562;13.414;2022-10-22T02:25:10;97011.72;;;13.31;74.14
35649;BME280;21768;48.562;13.414;2022-10-22T02:27:48;97028.03;;;13.36;74.31
35649;BME280;21768;48.562;13.414;2022-10-22T02:30:20;97046.66;;;13.38;74.15
35649;BME280;21768;48.562;13.414;2022-10-22T02:33:07;97061.53;;;13.30;73.93
35649;BME280;21768;48.562;13.414;2022-10-22T02:35:35;97058.91;;;13.28;74.01
35649;BME280;21768;48.562;13.414;2022-10-22T02:38:02;97056.53;;;13.32;74.16
35649;BME280;21768;48.562;13.414;2022-10-22T02:40:29;97066.81;;;13.35;74.09
35649;BME280;21768;48.562;13.414;2022-10-22T02:42:55;97073.63;;;13.36;73.93
35649;BME280;21768;48.562;13.414;2022-10-22T02:45:21;97082.13;;;13.38;74.08
35649;BME280;21768;48.562;13.414;2022-10-22T02:47:46;97088.84;;;13.36;74.06
35649;BME280;21768;48.562;13.414;2022-10-22T02:50:13;97080.28;;;13.34;74.09
35649;BME280;21768;48.562;13.414;2022-10-22T02:52:38;97076.16;;;13.36;74.12
35649;BME280;21768;48.562;13.414;2022-10-22T02:55:04;97066.22;;;13.40;74.10
35649;BME280;21768;48.562;13.414;2022-10-22T02:57:30;97070.72;;;13.46;74.02
35649;BME280;21768;48.562;13.414;2022-10-22T02:59:56;97075.16;;;13.50;73.99
35649;BME280;21768;48.562;13.414;2022-10-22T03:02:21;97074.34;;;13.51;73.93
35649;BME280;21768;48.562;13.414;2022-10-22T03:04:46;97075.94;;;13.49;73.73
35649;BME280;21768;48.562;13.414;2022-10-22T03:07:12;97087.59;;;13.45;73.93
35649;BME280;21768;48.562;13.414;2022-10-22T03:09:37;97087.59;;;13.45;74.03
35649;BME280;21768;48.562;13.414;2022-10-22T03:12:03;97090.28;;;13.48;73.95
35649;BME280;21768;48.562;13.414;2022-10-22T03:14:29;97094.56;;;13.49;74.11
35649;BME280;21768;48.562;13.414;2022-10-22T03:16:54;97092.88;;;13.50;73.99
35649;BME280;21768;48.562;13.414;2022-10-22T03:19:19;97103.19;;;13.53;73.80
35649;BME280;21768;48.562;13.414;2022-10-22T03:21:55;97122.81;;;13.57;73.85
35649;BME280;21768;48.562;13.414;2022-10-22T03:24:26;97142.31;;;13.58;73.48
35649;BME280;21768;48.562;13.414;2022-10-22T03:26:53;97146.44;;;13.56;73.43
35649;BME280;21768;48.562;13.414;2022-10-22T03:29:21;97144.75;;;13.56;73.51
35649;BME280;21768;48.562;13.414;2022-10-22T03:31:47;97142.41;;;13.61;73.19
35649;BME280;21768;48.562;13.414;2022-10-22T03:34:13;97145.25;;;13.67;73.31
35649;BME280;21768;48.562;13.414;2022-10-22T03:36:39;97146.06;;;13.66;73.54
35649;BME280;21768;48.562;13.414;2022-10-22T03:39:05;97157.88;;;13.66;73.49
35649;BME280;21768;48.562;13.414;2022-10-22T03:41:31;97163.00;;;13.67;73.57
35649;BME280;21768;48.562;13.414;2022-10-22T03:43:59;97173.16;;;13.67;73.69
35649;BME280;21768;48.562;13.414;2022-10-22T03:46:25;97173.22;;;13.69;73.78
35649;BME280;21768;48.562;13.414;2022-10-22T03:48:50;97171.56;;;13.69;73.76
35649;BME280;21768;48.562;13.414;2022-10-22T03:51:15;97179.25;;;13.71;73.96
35649;BME280;21768;48.562;13.414;2022-10-22T03:53:41;97176.78;;;13.72;73.96
35649;BME280;21768;48.562;13.414;2022-10-22T03:56:10;97185.25;;;13.73;73.99
35649;BME280;21768;48.562;13.414;2022-10-22T03:58:37;97186.94;;;13.72;74.05
35649;BME280;21768;48.562;13.414;2022-10-22T04:01:08;97196.28;;;13.73;74.19
35649;BME280;21768;48.562;13.414;2022-10-22T04:03:34;97203.81;;;13.72;74.16
35649;BME280;21768;48.562;13.414;2022-10-22T04:06:04;97202.84;;;13.70;74.20
35649;BME280;21768;48.562;13.414;2022-10-22T04:08:30;97202.00;;;13.69;74.25
35649;BME280;21768;48.562;13.414;2022-10-22T04:10:55;97207.13;;;13.71;74.40
35649;BME280;21768;48.562;13.414;2022-10-22T04:13:21;97213.00;;;13.70;74.27
35649;BME280;21768;48.562;13.414;2022-10-22T04:15:46;97211.34;;;13.70;74.29
35649;BME280;21768;48.562;13.414;2022-10-22T04:18:11;97216.97;;;13.65;74.67
35649;BME280;21768;48.562;13.414;2022-10-22T04:20:37;97216.81;;;13.61;74.77
35649;BME280;21768;48.562;13.414;2022-10-22T04:23:02;97214.69;;;13.53;75.03
35649;BME280;21768;48.562;13.414;2022-10-22T04:25:27;97206.00;;;13.48;75.26
35649;BME280;21768;48.562;13.414;2022-10-22T04:27:53;97212.16;;;13.37;75.75
35649;BME280;21768;48.562;13.414;2022-10-22T04:30:18;97212.16;;;13.37;76.09
35649;BME280;21768;48.562;13.414;2022-10-22T04:32:43;97204.66;;;13.38;75.89
35649;BME280;21768;48.562;13.414;2022-10-22T04:35:09;97196.75;;;13.32;76.08
35649;BME280;21768;48.562;13.414;2022-10-22T04:37:35;97193.34;;;13.32;76.03
35649;BME280;21768;48.562;13.414;2022-10-22T04:40:00;97194.16;;;13.31;76.46
35649;BME280;21768;48.562;13.414;2022-10-22T04:42:25;97187.50;;;13.33;76.51
35649;BME280;21768;48.562;13.414;2022-10-22T04:44:51;97180.91;;;13.36;76.52
35649;BME280;21768;48.562;13.414;2022-10-22T04:47:16;97167.06;;;13.30;76.41
35649;BME280;21768;48.562;13.414;2022-10-22T04:49:42;97170.00;;;13.21;76.55
35649;BME280;21768;48.562;13.414;2022-10-22T04:52:07;97165.28;;;13.12;76.69
35649;BME280;21768;48.562;13.414;2022-10-22T04:54:32;97161.19;;;12.98;76.79
35649;BME280;21768;48.562;13.414;2022-10-22T04:56:58;97158.59;;;12.80;77.40
35649;BME280;21768;48.562;13.414;2022-10-22T04:59:23;97167.06;;;12.81;77.43
35649;BME280;21768;48.562;13.414;2022-10-22T05:01:48;97169.34;;;12.76;77.52
35649;BME280;21768;48.562;13.414;2022-10-22T05:04:15;97174.94;;;12.71;77.73
35649;BME280;21768;48.562;13.414;2022-10-22T05:06:41;97185.22;;;12.74;77.79
35649;BME280;21768;48.562;13.414;2022-10-22T05:09:11;97198.22;;;12.80;77.80
35649;BME280;21768;48.562;13.414;2022-10-22T05:11:38;97195.78;;;12.81;77.59
35649;BME280;21768;48.562;13.414;2022-10-22T05:14:06;97208.50;;;12.83;77.62
35649;BME280;21768;48.562;13.414;2022-10-22T05:16:32;97211.34;;;12.89;77.71
35649;BME280;21768;48.562;13.414;2022-10-22T05:18:59;97218.66;;;12.99;77.64
35649;BME280;21768;48.562;13.414;2022-10-22T05:21:25;97224.91;;;13.06;77.74
35649;BME280;21768;48.562;13.414;2022-10-22T05:23:52;97221.84;;;13.11;77.64
35649;BME280;21768;48.562;13.414;2022-10-22T05:26:20;97211.06;;;13.15;77.53
35649;BME280;21768;48.562;13.414;2022-10-22T05:28:47;97215.50;;;13.19;77.56
35649;BME280;21768;48.562;13.414;2022-10-22T05:31:14;97217.34;;;13.22;77.56
35649;BME280;21768;48.562;13.414;2022-10-22T05:33:41;97230.25;;;13.26;77.56
35649;BME280;21768;48.562;13.414;2022-10-22T05:36:08;97223.69;;;13.30;77.68
35649;BME280;21768;48.562;13.414;2022-10-22T05:38:35;97233.31;;;13.37;77.58
35649;BME280;21768;48.562;13.414;2022-10-22T05:41:05;97232.59;;;13.40;77.52
35649;BME280;21768;48.562;13.414;2022-10-22T05:43:31;97234.34;;;13.41;77.31
35649;BME280;21768;48.562;13.414;2022-10-22T05:46:01;97248.69;;;13.40;77.32
35649;BME280;21768;48.562;13.414;2022-10-22T05:48:28;97251.28;;;13.42;77.32
35649;BME280;21768;48.562;13.414;2022-10-22T05:50:53;97246.22;;;13.42;77.38
35649;BME280;21768;48.562;13.414;2022-10-22T05:53:18;97241.00;;;13.39;77.56
35649;BME280;21768;48.562;13.414;2022-10-22T05:55:44;97261.28;;;13.39;77.71
35649;BME280;21768;48.562;13.414;2022-10-22T05:58:11;97255.41;;;13.40;77.60
35649;BME280;21768;48.562;13.414;2022-10-22T06:00:37;97258.81;;;13.40;77.65
35649;BME280;21768;48.562;13.414;2022-10-22T06:03:02;97266.34;;;13.39;77.82
35649;BME280;21768;48.562;13.414;2022-10-22T06:05:27;97259.84;;;13.44;77.83
35649;BME280;21768;48.562;13.414;2022-10-22T06:07:53;97250.19;;;13.53;77.81
35649;BME280;21768;48.562;13.414;2022-10-22T06:10:20;97253.03;;;13.59;77.53
35649;BME280;21768;48.562;13.414;2022-10-22T06:12:46;97251.44;;;13.61;77.57
35649;BME280;21768;48.562;13.414;2022-10-22T06:15:14;97263.38;;;13.63;77.71
35649;BME280;21768;48.562;13.414;2022-10-22T06:17:39;97255.88;;;13.65;77.77
35649;BME280;21768;48.562;13.414;2022-10-22T06:20:05;97264.34;;;13.66;77.67
35649;BME280;21768;48.562;13.414;2022-10-22T06:22:32;97266.88;;;13.66;77.77
35649;BME280;21768;48.562;13.414;2022-10-22T06:24:57;97278.22;;;13.72;77.73
35649;BME280;21768;48.562;13.414;2022-10-22T06:27:22;97278.38;;;13.75;77.81
35649;BME280;21768;48.562;13.414;2022-10-22T06:29:48;97288.66;;;13.78;77.71
35649;BME280;21768;48.562;13.414;2022-10-22T06:32:13;97281.84;;;13.77;77.80
35649;BME280;21768;48.562;13.414;2022-10-22T06:34:39;97289.47;;;13.77;77.78
35649;BME280;21768;48.562;13.414;2022-10-22T06:37:04;97288.66;;;13.78;77.81
35649;BME280;21768;48.562;13.414;2022-10-22T06:39:30;97283.44;;;13.75;77.59
35649;BME280;21768;48.562;13.414;2022-10-22T06:41:55;97292.00;;;13.77;77.69
35649;BME280;21768;48.562;13.414;2022-10-22T06:44:21;97301.50;;;13.81;77.58
35649;BME280;21768;48.562;13.414;2022-10-22T06:46:51;97318.53;;;13.84;77.71
35649;BME280;21768;48.562;13.414;2022-10-22T06:49:17;97328.78;;;13.85;77.60
35649;BME280;21768;48.562;13.414;2022-10-22T06:51:43;97330.47;;;13.86;77.79
35649;BME280;21768;48.562;13.414;2022-10-22T06:54:08;97320.41;;;13.88;77.47
35649;BME280;21768;48.562;13.414;2022-10-22T06:56:34;97317.97;;;13.89;77.76
35649;BME280;21768;48.562;13.414;2022-10-22T06:58:59;97322.31;;;13.92;77.95
35649;BME280;21768;48.562;13.414;2022-10-22T07:01:27;97314.63;;;13.90;78.07
35649;BME280;21768;48.562;13.414;2022-10-22T07:03:53;97311.47;;;13.94;77.87
35649;BME280;21768;48.562;13.414;2022-10-22T07:06:20;97320.19;;;14.00;78.29
35649;BME280;21768;48.562;13.414;2022-10-22T07:08:46;97317.16;;;14.07;78.37
35649;BME280;21768;48.562;13.414;2022-10-22T07:13:39;97324.19;;;14.12;78.20
35649;BME280;21768;48.562;13.414;2022-10-22T07:16:06;97326.00;;;14.15;78.17
35649;BME280;21768;48.562;13.414;2022-10-22T07:18:32;97317.44;;;14.13;78.02
35649;BME280;21768;48.562;13.414;2022-10-22T07:20:57;97324.25;;;14.14;78.13
35649;BME280;21768;48.562;13.414;2022-10-22T07:23:24;97330.13;;;14.13;78.00
35649;BME280;21768;48.562;13.414;2022-10-22T07:25:49;97338.75;;;14.16;77.85
35649;BME280;21768;48.562;13.414;2022-10-22T07:28:15;97343.28;;;14.22;78.12
35649;BME280;21768;48.562;13.414;2022-10-22T07:31:15;97343.75;;;14.31;77.85
35649;BME280;21768;48.562;13.414;2022-10-22T07:33:41;97344.03;;;14.37;77.73
35649;BME280;21768;48.562;13.414;2022-10-22T07:36:09;97347.69;;;14.42;77.95
35649;BME280;21768;48.562;13.414;2022-10-22T07:38:35;97345.63;;;14.51;78.05
35649;BME280;21768;48.562;13.414;2022-10-22T07:41:01;97340.06;;;14.58;78.21
35649;BME280;21768;48.562;13.414;2022-10-22T07:43:27;97343.97;;;14.70;78.46
35649;BME280;21768;48.562;13.414;2022-10-22T07:45:52;97348.00;;;14.66;78.68
35649;BME280;21768;48.562;13.414;2022-10-22T07:48:20;97346.00;;;14.77;78.86
35649;BME280;21768;48.562;13.414;2022-10-22T07:50:48;97340.34;;;14.82;78.62
35649;BME280;21768;48.562;13.414;2022-10-22T07:53:14;97334.50;;;14.85;78.76
35649;BME280;21768;48.562;13.414;2022-10-22T07:55:40;97339.81;;;14.89;79.06
35649;BME280;21768;48.562;13.414;2022-10-22T07:58:05;97340.03;;;14.94;78.83
35649;BME280;21768;48.562;13.414;2022-10-22T08:00:30;97342.66;;;14.95;79.19
35649;BME280;21768;48.562;13.414;2022-10-22T08:02:56;97343.66;;;14.99;79.26
35649;BME280;21768;48.562;13.414;2022-10-22T08:05:21;97352.25;;;15.01;79.30
35649;BME280;21768;48.562;13.414;2022-10-22T08:07:46;97360.88;;;15.05;79.22
35649;BME280;21768;48.562;13.414;2022-10-22T08:10:12;97373.72;;;15.08;79.16
35649;BME280;21768;48.562;13.414;2022-10-22T08:12:38;97379.81;;;15.11;79.19
35649;BME280;21768;48.562;13.414;2022-10-22T08:15:04;97381.69;;;15.15;79.16
35649;BME280;21768;48.562;13.414;2022-10-22T08:17:30;97399.28;;;15.28;78.87
35649;BME280;21768;48.562;13.414;2022-10-22T08:19:55;97389.34;;;15.35;78.60
35649;BME280;21768;48.562;13.414;2022-10-22T08:22:21;97393.88;;;15.40;78.48
35649;BME280;21768;48.562;13.414;2022-10-22T08:24:46;97405.06;;;15.44;78.25
35649;BME280;21768;48.562;13.414;2022-10-22T08:27:12;97402.66;;;15.47;78.11
35649;BME280;21768;48.562;13.414;2022-10-22T08:29:37;97396.03;;;15.50;78.00
35649;BME280;21768;48.562;13.414;2022-10-22T08:32:03;97396.13;;;15.52;78.00
35649;BME280;21768;48.562;13.414;2022-10-22T08:34:29;97389.34;;;15.52;77.97
35649;BME280;21768;48.562;13.414;2022-10-22T08:36:54;97374.16;;;15.54;78.07
35649;BME280;21768;48.562;13.414;2022-10-22T08:39:20;97379.50;;;15.58;78.18
35649;BME280;21768;48.562;13.414;2022-10-22T08:47:18;97404.88;;;15.76;77.81
35649;BME280;21768;48.562;13.414;2022-10-22T08:49:47;97405.16;;;15.82;77.74
35649;BME280;21768;48.562;13.414;2022-10-22T08:52:15;97410.25;;;15.82;77.71
35649;BME280;21768;48.562;13.414;2022-10-22T08:54:55;97408.50;;;15.81;77.69
35649;BME280;21768;48.562;13.414;2022-10-22T08:58:11;97414.53;;;15.83;77.47
35649;BME280;21768;48.562;13.414;2022-10-22T09:06:17;97431.00;;;15.91;77.32
35649;BME280;21768;48.562;13.414;2022-10-22T09:08:44;97444.50;;;15.90;77.35
35649;BME280;21768;48.562;13.414;2022-10-22T09:13:43;97466.75;;;15.94;77.38
35649;BME280;21768;48.562;13.414;2022-10-22T09:16:14;97466.03;;;15.97;77.11
35649;BME280;21768;48.562;13.414;2022-10-22T09:26:20;97477.59;;;16.10;77.23
35649;BME280;21768;48.562;13.414;2022-10-22T09:28:49;97480.28;;;16.13;77.32
35649;BME280;21768;48.562;13.414;2022-10-22T09:31:15;97483.78;;;16.15;77.42
35649;BME280;21768;48.562;13.414;2022-10-22T09:33:43;97474.53;;;16.17;77.49
35649;BME280;21768;48.562;13.414;2022-10-22T09:36:15;97478.03;;;16.19;77.47
35649;BME280;21768;48.562;13.414;2022-10-22T09:38:46;97483.13;;;16.19;77.47
35649;BME280;21768;48.562;13.414;2022-10-22T09:41:12;97478.91;;;16.19;77.30
35649;BME280;21768;48.562;13.414;2022-10-22T09:43:37;97473.75;;;16.18;77.28
35649;BME280;21768;48.562;13.414;2022-10-22T09:46:05;97482.19;;;16.17;77.33
35649;BME280;21768;48.562;13.414;2022-10-22T10:05:25;97489.28;;;16.05;77.49
35649;BME280;21768;48.562;13.414;2022-10-22T10:07:50;97487.69;;;16.07;77.54
35649;BME280;21768;48.562;13.414;2022-10-22T10:10:20;97485.13;;;16.07;77.77
35649;BME280;21768;48.562;13.414;2022-10-22T10:12:57;97494.44;;;16.06;77.84
35649;BME280;21768;48.562;13.414;2022-10-22T10:15:34;97485.94;;;16.06;77.97
35649;BME280;21768;48.562;13.414;2022-10-22T10:18:24;97484.44;;;16.11;78.10
35649;BME280;21768;48.562;13.414;2022-10-22T10:23:35;97474.22;;;16.28;77.39
35649;BME280;21768;48.562;13.414;2022-10-22T10:26:16;97480.56;;;16.38;77.10
35649;BME280;21768;48.562;13.414;2022-10-22T10:35:07;97479.75;;;16.58;76.28
35649;BME280;21768;48.562;13.414;2022-10-22T10:37:52;97480.03;;;16.64;76.15
35649;BME280;21768;48.562;13.414;2022-10-22T10:40:46;97487.75;;;16.66;76.44
35649;BME280;21768;48.562;13.414;2022-10-22T10:43:14;97491.25;;;16.68;76.34
35649;BME280;21768;48.562;13.414;2022-10-22T10:46:01;97482.66;;;16.66;76.43
35649;BME280;21768;48.562;13.414;2022-10-22T10:48:48;97476.03;;;16.70;76.06
35649;BME280;21768;48.562;13.414;2022-10-22T10:51:37;97480.31;;;16.71;75.17
35649;BME280;21768;48.562;13.414;2022-10-22T10:54:29;97486.88;;;16.65;75.61
35649;BME280;21768;48.562;13.414;2022-10-22T10:56:59;97476.69;;;16.65;75.36
35649;BME280;21768;48.562;13.414;2022-10-22T11:04:51;97482.19;;;16.75;75.96
35649;BME280;21768;48.562;13.414;2022-10-22T11:07:24;97477.59;;;16.87;75.87
35649;BME280;21768;48.562;13.414;2022-10-22T11:10:00;97467.72;;;16.94;74.94
35649;BME280;21768;48.562;13.414;2022-10-22T11:12:31;97466.44;;;17.04;74.90
35649;BME280;21768;48.562;13.414;2022-10-22T11:15:29;97477.25;;;17.19;74.96
35649;BME280;21768;48.562;13.414;2022-10-22T11:18:02;97472.53;;;17.28;74.52
35649;BME280;21768;48.562;13.414;2022-10-22T11:23:31;97467.31;;;17.48;74.29
35649;BME280;21768;48.562;13.414;2022-10-22T11:25:58;97468.38;;;17.53;73.22
35649;BME280;21768;48.562;13.414;2022-10-22T11:31:10;97463.06;;;17.69;72.80
35649;BME280;21768;48.562;13.414;2022-10-22T11:33:47;97457.09;;;17.91;71.92
35649;BME280;21768;48.562;13.414;2022-10-22T11:36:18;97449.94;;;18.05;71.31
35649;BME280;21768;48.562;13.414;2022-10-22T11:38:46;97463.47;;;18.02;71.16
35649;BME280;21768;48.562;13.414;2022-10-22T11:41:14;97460.56;;;17.93;72.01
35649;BME280;21768;48.562;13.414;2022-10-22T11:44:09;97456.72;;;17.82;72.15
35649;BME280;21768;48.562;13.414;2022-10-22T11:47:03;97459.88;;;17.75;72.30
35649;BME280;21768;48.562;13.414;2022-10-22T11:49:44;97452.06;;;17.70;71.86
35649;BME280;21768;48.562;13.414;2022-10-22T11:52:36;97446.69;;;17.86;71.58
35649;BME280;21768;48.562;13.414;2022-10-22T11:55:29;97441.56;;;18.09;71.57
35649;BME280;21768;48.562;13.414;2022-10-22T11:57:58;97444.78;;;18.03;69.18
35649;BME280;21768;48.562;13.414;2022-10-22T12:00:46;97460.06;;;17.79;69.39
35649;BME280;21768;48.562;13.414;2022-10-22T12:03:24;97450.03;;;17.63;69.48
35649;BME280;21768;48.562;13.414;2022-10-22T12:09:00;97449.97;;;17.61;70.81
35649;BME280;21768;48.562;13.414;2022-10-22T12:11:37;97459.25;;;17.59;70.42
35649;BME280;21768;48.562;13.414;2022-10-22T12:16:50;97458.28;;;17.56;70.64
35649;BME280;21768;48.562;13.414;2022-10-22T12:19:29;97465.22;;;17.60;69.26
35649;BME280;21768;48.562;13.414;2022-10-22T12:22:28;97465.50;;;17.66;70.10
35649;BME280;21768;48.562;13.414;2022-10-22T12:24:58;97469.09;;;17.71;69.13
35649;BME280;21768;48.562;13.414;2022-10-22T12:27:34;97455.31;;;18.36;68.71
35649;BME280;21768;48.562;13.414;2022-10-22T12:30:02;97457.41;;;18.95;65.73
35649;BME280;21768;48.562;13.414;2022-10-22T12:32:36;97452.13;;;19.16;66.33
35649;BME280;21768;48.562;13.414;2022-10-22T12:35:08;97449.47;;;19.95;64.46
35649;BME280;21768;48.562;13.414;2022-10-22T12:37:34;97450.50;;;20.95;60.69
35649;BME280;21768;48.562;13.414;2022-10-22T12:40:12;97454.19;;;21.78;57.48
35649;BME280;21768;48.562;13.414;2022-10-22T12:42:47;97448.94;;;21.00;58.08
35649;BME280;21768;48.562;13.414;2022-10-22T12:45:12;97446.16;;;22.88;54.32
35649;BME280;21768;48.562;13.414;2022-10-22T12:47:38;97450.97;;;25.25;50.50
35649;BME280;21768;48.562;13.414;2022-10-22T12:50:03;97436.31;;;27.76;45.45
35649;BME280;21768;48.562;13.414;2022-10-22T12:52:29;97440.63;;;27.50;42.89
35649;BME280;21768;48.562;13.414;2022-10-22T12:54:55;97445.84;;;27.10;44.47
35649;BME280;21768;48.562;13.414;2022-10-22T12:57:20;97448.44;;;27.16;41.97
35649;BME280;21768;48.562;13.414;2022-10-22T12:59:48;97441.28;;;26.19;44.69
35649;BME280;21768;48.562;13.414;2022-10-22T13:02:26;97448.41;;;27.80;42.03
35649;BME280;21768;48.562;13.414;2022-10-22T13:07:38;97455.69;;;24.77;45.80
35649;BME280;21768;48.562;13.414;2022-10-22T13:10:19;97458.59;;;23.13;48.71
35649;BME280;21768;48.562;13.414;2022-10-22T13:12:50;97451.34;;;22.02;51.99
35649;BME280;21768;48.562;13.414;2022-10-22T13:18:05;97457.25;;;21.24;54.17
35649;BME280;21768;48.562;13.414;2022-10-22T13:20:52;97453.53;;;20.79;55.25
35649;BME280;21768;48.562;13.414;2022-10-22T13:23:20;97447.66;;;20.51;56.62
35649;BME280;21768;48.562;13.414;2022-10-22T13:28:24;97457.63;;;20.12;57.57
35649;BME280;21768;48.562;13.414;2022-10-22T13:35:54;97450.50;;;19.72;59.77
35649;BME280;21768;48.562;13.414;2022-10-22T13:38:22;97447.59;;;19.61;59.85
35649;BME280;21768;48.562;13.414;2022-10-22T13:40:48;97450.59;;;19.75;59.41
35649;BME280;21768;48.562;13.414;2022-10-22T13:43:15;97450.19;;;20.20;58.26
35649;BME280;21768;48.562;13.414;2022-10-22T13:45:40;97455.72;;;20.35;57.50
35649;BME280;21768;48.562;13.414;2022-10-22T13:48:15;97456.00;;;20.44;57.13
35649;BME280;21768;48.562;13.414;2022-10-22T13:50:41;97453.81;;;20.91;56.69
35649;BME280;21768;48.562;13.414;2022-10-22T13:53:16;97460.78;;;21.65;55.79
35649;BME280;21768;48.562;13.414;2022-10-22T13:55:43;97455.38;;;22.33;53.26
35649;BME280;21768;48.562;13.414;2022-10-22T13:58:14;97445.94;;;23.25;52.05
35649;BME280;21768;48.562;13.414;2022-10-22T14:00:45;97447.22;;;24.14;49.67
35649;BME280;21768;48.562;13.414;2022-10-22T14:03:13;97448.13;;;24.19;47.74
35649;BME280;21768;48.562;13.414;2022-10-22T14:05:40;97445.75;;;23.15;51.62
35649;BME280;21768;48.562;13.414;2022-10-22T14:08:11;97439.94;;;22.33;52.29
35649;BME280;21768;48.562;13.414;2022-10-22T14:10:37;97450.75;;;21.76;52.24
35649;BME280;21768;48.562;13.414;2022-10-22T14:13:05;97452.13;;;21.24;53.47
35649;BME280;21768;48.562;13.414;2022-10-22T14:15:31;97455.38;;;20.86;54.86
35649;BME280;21768;48.562;13.414;2022-10-22T14:17:58;97447.75;;;20.56;57.31
35649;BME280;21768;48.562;13.414;2022-10-22T14:20:27;97453.00;;;20.30;56.99
35649;BME280;21768;48.562;13.414;2022-10-22T14:22:55;97453.13;;;20.03;56.86
35649;BME280;21768;48.562;13.414;2022-10-22T14:25:24;97451.31;;;19.99;57.67
35649;BME280;21768;48.562;13.414;2022-10-22T14:27:50;97457.16;;;19.95;58.23
35649;BME280;21768;48.562;13.414;2022-10-22T14:30:18;97457.69;;;19.85;58.34
35649;BME280;21768;48.562;13.414;2022-10-22T14:32:44;97450.31;;;19.66;58.87
35649;BME280;21768;48.562;13.414;2022-10-22T14:35:15;97453.09;;;19.47;59.46
35649;BME280;21768;48.562;13.414;2022-10-22T14:37:40;97460.38;;;19.34;60.36
35649;BME280;21768;48.562;13.414;2022-10-22T14:40:07;97457.44;;;19.22;60.93
35649;BME280;21768;48.562;13.414;2022-10-22T14:42:39;97461.16;;;19.05;61.93
35649;BME280;21768;48.562;13.414;2022-10-22T14:45:17;97462.31;;;18.89;62.19
35649;BME280;21768;48.562;13.414;2022-10-22T14:47:43;97474.66;;;18.76;62.54
35649;BME280;21768;48.562;13.414;2022-10-22T14:50:09;97476.06;;;18.67;63.59